FDX24 MMUN-KMEM
Flight info
| Callsign | FDX24 |
|---|---|
| Flight time | 2h 18m |
| Altitude | 30000 |
| Route | NOSUG2A NOSUG UT27 PISAD L333 HRV DCT MCB J35 MCGEE DCT MEVEE HOBRK4 |
| Aircraft | MD11/H-SDE1E2E3FGHIJ2J3J4J5M1RWXY/LB1D1 |
Departure
| Time | 2026-05-03 22:42 |
|---|---|
| Airport | Cancún International Airport (MMUN) |
Arrival
| Time | 2026-05-04 01:01 |
|---|---|
| Airport | Memphis International Airport (KMEM) |
| Time | Latitude | Longitude | Altitude | Speed | Heading |
|---|---|---|---|---|---|
| 2026-05-03 22:16 | 21.04161 | -86.87797 | 29 ft | 0 kts | 303° |
| 2026-05-03 22:27 | 21.04161 | -86.87796 | 29 ft | 1 kts | 303° |
| 2026-05-03 22:28 | 21.04154 | -86.87786 | 29 ft | 3 kts | 285° |
| 2026-05-03 22:28 | 21.04151 | -86.87770 | 28 ft | 3 kts | 249° |
| 2026-05-03 22:28 | 21.04159 | -86.87753 | 27 ft | 3 kts | 227° |
| 2026-05-03 22:28 | 21.04172 | -86.87740 | 27 ft | 2 kts | 217° |
| 2026-05-03 22:29 | 21.04174 | -86.87738 | 26 ft | 0 kts | 216° |
| 2026-05-03 22:34 | 21.04166 | -86.87744 | 26 ft | 5 kts | 216° |
| 2026-05-03 22:35 | 21.04139 | -86.87763 | 28 ft | 4 kts | 212° |
| 2026-05-03 22:35 | 21.04118 | -86.87777 | 29 ft | 3 kts | 211° |
| 2026-05-03 22:35 | 21.04092 | -86.87790 | 29 ft | 6 kts | 201° |
| 2026-05-03 22:35 | 21.04034 | -86.87817 | 29 ft | 10 kts | 209° |
| 2026-05-03 22:36 | 21.03992 | -86.87861 | 29 ft | 8 kts | 244° |
| 2026-05-03 22:36 | 21.03994 | -86.87913 | 29 ft | 7 kts | 285° |
| 2026-05-03 22:36 | 21.04014 | -86.87955 | 29 ft | 6 kts | 299° |
| 2026-05-03 22:36 | 21.04035 | -86.87992 | 29 ft | 5 kts | 303° |
| 2026-05-03 22:37 | 21.04064 | -86.88038 | 30 ft | 11 kts | 303° |
| 2026-05-03 22:37 | 21.04116 | -86.88122 | 30 ft | 14 kts | 304° |
| 2026-05-03 22:37 | 21.04170 | -86.88206 | 30 ft | 13 kts | 304° |
| 2026-05-03 22:37 | 21.04217 | -86.88282 | 31 ft | 11 kts | 304° |
| 2026-05-03 22:38 | 21.04257 | -86.88345 | 31 ft | 9 kts | 304° |
| 2026-05-03 22:38 | 21.04292 | -86.88401 | 31 ft | 9 kts | 304° |
| 2026-05-03 22:38 | 21.04329 | -86.88460 | 30 ft | 10 kts | 303° |
| 2026-05-03 22:38 | 21.04373 | -86.88530 | 32 ft | 12 kts | 303° |
| 2026-05-03 22:39 | 21.04423 | -86.88610 | 32 ft | 14 kts | 303° |
| 2026-05-03 22:39 | 21.04479 | -86.88700 | 32 ft | 16 kts | 303° |
| 2026-05-03 22:39 | 21.04543 | -86.88803 | 32 ft | 17 kts | 303° |
| 2026-05-03 22:39 | 21.04606 | -86.88906 | 32 ft | 16 kts | 303° |
| 2026-05-03 22:40 | 21.04628 | -86.89000 | 32 ft | 12 kts | 242° |
| 2026-05-03 22:40 | 21.04618 | -86.89013 | 32 ft | 0 kts | 230° |
| 2026-05-03 22:40 | 21.04618 | -86.89014 | 32 ft | 1 kts | 230° |
| 2026-05-03 22:40 | 21.04593 | -86.89038 | 31 ft | 10 kts | 220° |
| 2026-05-03 22:41 | 21.04523 | -86.89064 | 30 ft | 10 kts | 160° |
| 2026-05-03 22:41 | 21.04475 | -86.89006 | 31 ft | 19 kts | 124° |
| 2026-05-03 22:41 | 21.04231 | -86.88615 | 32 ft | 105 kts | 123° |
| 2026-05-03 22:41 | 21.03682 | -86.87740 | 31 ft | 174 kts | 124° |
| 2026-05-03 22:42 | 21.02944 | -86.86574 | 380 ft | 200 kts | 124° |
| 2026-05-03 22:42 | 21.02155 | -86.85280 | 1047 ft | 211 kts | 119° |
| 2026-05-03 22:42 | 21.01750 | -86.83773 | 1823 ft | 215 kts | 89° |
| 2026-05-03 22:42 | 21.02156 | -86.82217 | 2409 ft | 229 kts | 57° |
| 2026-05-03 22:43 | 21.03373 | -86.81057 | 2828 ft | 240 kts | 28° |
| 2026-05-03 22:43 | 21.04886 | -86.80287 | 3466 ft | 246 kts | 24° |
| 2026-05-03 22:43 | 21.06525 | -86.79529 | 3965 ft | 268 kts | 23° |
| 2026-05-03 22:43 | 21.08285 | -86.78759 | 4448 ft | 273 kts | 21° |
| 2026-05-03 22:44 | 21.10085 | -86.78199 | 5010 ft | 269 kts | 9° |
| 2026-05-03 22:44 | 21.11937 | -86.78101 | 5534 ft | 263 kts | 355° |
| 2026-05-03 22:44 | 21.13721 | -86.78293 | 6057 ft | 258 kts | 352° |
| 2026-05-03 22:44 | 21.15541 | -86.78679 | 6401 ft | 272 kts | 344° |
| 2026-05-03 22:45 | 21.17395 | -86.79204 | 6872 ft | 280 kts | 344° |
| 2026-05-03 22:45 | 21.19292 | -86.79714 | 7352 ft | 282 kts | 345° |
| 2026-05-03 22:45 | 21.21209 | -86.80180 | 7824 ft | 282 kts | 346° |
| 2026-05-03 22:45 | 21.23134 | -86.80615 | 8312 ft | 283 kts | 347° |
| 2026-05-03 22:46 | 21.25070 | -86.81031 | 8805 ft | 285 kts | 347° |
| 2026-05-03 22:46 | 21.27019 | -86.81436 | 9287 ft | 286 kts | 347° |
| 2026-05-03 22:46 | 21.28973 | -86.81834 | 9804 ft | 287 kts | 348° |
| 2026-05-03 22:46 | 21.30948 | -86.82230 | 10265 ft | 289 kts | 348° |
| 2026-05-03 22:47 | 21.32928 | -86.82624 | 10738 ft | 290 kts | 347° |
| 2026-05-03 22:47 | 21.34918 | -86.83017 | 11209 ft | 292 kts | 347° |
| 2026-05-03 22:47 | 21.36922 | -86.83412 | 11682 ft | 294 kts | 347° |
| 2026-05-03 22:47 | 21.38943 | -86.83809 | 12165 ft | 296 kts | 347° |
| 2026-05-03 22:48 | 21.40944 | -86.84202 | 12650 ft | 298 kts | 347° |
| 2026-05-03 22:48 | 21.42998 | -86.84605 | 13152 ft | 304 kts | 347° |
| 2026-05-03 22:48 | 21.45104 | -86.85019 | 13662 ft | 311 kts | 347° |
| 2026-05-03 22:48 | 21.47256 | -86.85441 | 14137 ft | 318 kts | 347° |
| 2026-05-03 22:49 | 21.49460 | -86.85874 | 14590 ft | 325 kts | 347° |
| 2026-05-03 22:49 | 21.51702 | -86.86313 | 15052 ft | 331 kts | 347° |
| 2026-05-03 22:49 | 21.53985 | -86.86761 | 15520 ft | 338 kts | 347° |
| 2026-05-03 22:49 | 21.56321 | -86.87219 | 16004 ft | 344 kts | 347° |
| 2026-05-03 22:50 | 21.58691 | -86.87684 | 16498 ft | 350 kts | 347° |
| 2026-05-03 22:50 | 21.61101 | -86.88157 | 16987 ft | 355 kts | 347° |
| 2026-05-03 22:50 | 21.63553 | -86.88638 | 17486 ft | 360 kts | 347° |
| 2026-05-03 22:50 | 21.66035 | -86.89125 | 17996 ft | 365 kts | 347° |
| 2026-05-03 22:51 | 21.68548 | -86.89618 | 18480 ft | 370 kts | 346° |
| 2026-05-03 22:51 | 21.71096 | -86.90119 | 18928 ft | 374 kts | 346° |
| 2026-05-03 22:51 | 21.73664 | -86.90623 | 19385 ft | 377 kts | 346° |
| 2026-05-03 22:51 | 21.76261 | -86.91133 | 19848 ft | 381 kts | 346° |
| 2026-05-03 22:52 | 21.78878 | -86.91647 | 20318 ft | 384 kts | 345° |
| 2026-05-03 22:52 | 21.81516 | -86.92166 | 20794 ft | 386 kts | 345° |
| 2026-05-03 22:52 | 21.84171 | -86.92661 | 21275 ft | 389 kts | 347° |
| 2026-05-03 22:52 | 21.86870 | -86.93008 | 21774 ft | 392 kts | 350° |
| 2026-05-03 22:53 | 21.89595 | -86.93265 | 22276 ft | 394 kts | 351° |
| 2026-05-03 22:53 | 21.92334 | -86.93490 | 22781 ft | 395 kts | 351° |
| 2026-05-03 22:53 | 21.95079 | -86.93709 | 23299 ft | 396 kts | 351° |
| 2026-05-03 22:53 | 21.97836 | -86.93932 | 23662 ft | 400 kts | 351° |
| 2026-05-03 22:54 | 22.00633 | -86.94166 | 23889 ft | 407 kts | 351° |
| 2026-05-03 22:54 | 22.03483 | -86.94409 | 24111 ft | 413 kts | 351° |
| 2026-05-03 22:54 | 22.06371 | -86.94656 | 24333 ft | 420 kts | 351° |
| 2026-05-03 22:54 | 22.09301 | -86.94906 | 24560 ft | 426 kts | 350° |
| 2026-05-03 22:55 | 22.12271 | -86.95161 | 24809 ft | 431 kts | 350° |
| 2026-05-03 22:55 | 22.15280 | -86.95421 | 25028 ft | 437 kts | 350° |
| 2026-05-03 22:55 | 22.18295 | -86.95682 | 25259 ft | 443 kts | 350° |
| 2026-05-03 22:55 | 22.21426 | -86.95953 | 25486 ft | 448 kts | 350° |
| 2026-05-03 22:56 | 22.24516 | -86.96219 | 25721 ft | 454 kts | 350° |
| 2026-05-03 22:56 | 22.27720 | -86.96496 | 25951 ft | 459 kts | 350° |
| 2026-05-03 22:56 | 22.30882 | -86.96768 | 26195 ft | 464 kts | 350° |
| 2026-05-03 22:56 | 22.34158 | -86.97051 | 26439 ft | 469 kts | 350° |
| 2026-05-03 22:57 | 22.37422 | -86.97332 | 26676 ft | 473 kts | 350° |
| 2026-05-03 22:57 | 22.40682 | -86.97614 | 26916 ft | 478 kts | 350° |
| 2026-05-03 22:57 | 22.44002 | -86.97900 | 27174 ft | 482 kts | 349° |
| 2026-05-03 22:57 | 22.47362 | -86.98190 | 27421 ft | 486 kts | 349° |
| 2026-05-03 22:58 | 22.50741 | -86.98483 | 27662 ft | 489 kts | 349° |
| 2026-05-03 22:58 | 22.54146 | -86.98778 | 27921 ft | 493 kts | 349° |
| 2026-05-03 22:58 | 22.57580 | -86.99075 | 28177 ft | 498 kts | 349° |
| 2026-05-03 22:58 | 22.61051 | -86.99376 | 28431 ft | 502 kts | 349° |
| 2026-05-03 22:59 | 22.64538 | -86.99678 | 28691 ft | 504 kts | 349° |
| 2026-05-03 22:59 | 22.68041 | -86.99981 | 28942 ft | 506 kts | 349° |
| 2026-05-03 22:59 | 22.71537 | -87.00284 | 29208 ft | 508 kts | 349° |
| 2026-05-03 22:59 | 22.75067 | -87.00590 | 29466 ft | 509 kts | 349° |
| 2026-05-03 23:00 | 22.78593 | -87.00895 | 29762 ft | 508 kts | 349° |
| 2026-05-03 23:00 | 22.82115 | -87.01201 | 29954 ft | 509 kts | 349° |
| 2026-05-03 23:00 | 22.85644 | -87.01507 | 29994 ft | 507 kts | 349° |
| 2026-05-03 23:01 | 22.92601 | -87.02106 | 29988 ft | 498 kts | 348° |
| 2026-05-03 23:01 | 22.99505 | -87.02710 | 29990 ft | 498 kts | 348° |
| 2026-05-03 23:02 | 23.06426 | -87.03318 | 30008 ft | 499 kts | 348° |
| 2026-05-03 23:02 | 23.13347 | -87.03922 | 30000 ft | 498 kts | 348° |
| 2026-05-03 23:03 | 23.20256 | -87.04525 | 29998 ft | 498 kts | 348° |
| 2026-05-03 23:03 | 23.27151 | -87.05129 | 30002 ft | 497 kts | 348° |
| 2026-05-03 23:04 | 23.34053 | -87.05733 | 30006 ft | 497 kts | 348° |
| 2026-05-03 23:04 | 23.40953 | -87.06338 | 30033 ft | 497 kts | 348° |
| 2026-05-03 23:05 | 23.47832 | -87.06939 | 30010 ft | 493 kts | 348° |
| 2026-05-03 23:05 | 23.54658 | -87.07538 | 30010 ft | 492 kts | 348° |
| 2026-05-03 23:06 | 23.61487 | -87.08141 | 30008 ft | 493 kts | 348° |
| 2026-05-03 23:06 | 23.68318 | -87.08743 | 30010 ft | 493 kts | 348° |
| 2026-05-03 23:07 | 23.74002 | -87.09243 | 30037 ft | 493 kts | 347° |
| 2026-05-03 23:07 | 23.80811 | -87.09839 | 30015 ft | 487 kts | 347° |
| 2026-05-03 23:08 | 23.87551 | -87.10434 | 30021 ft | 487 kts | 347° |
| 2026-05-03 23:08 | 23.94324 | -87.11038 | 30018 ft | 488 kts | 347° |
| 2026-05-03 23:09 | 24.01090 | -87.11638 | 30020 ft | 488 kts | 347° |
| 2026-05-03 23:09 | 24.07856 | -87.12236 | 30028 ft | 487 kts | 347° |
| 2026-05-03 23:10 | 24.14581 | -87.12830 | 30030 ft | 484 kts | 347° |
| 2026-05-03 23:10 | 24.21296 | -87.13427 | 30021 ft | 485 kts | 347° |
| 2026-05-03 23:11 | 24.28016 | -87.14043 | 30026 ft | 482 kts | 345° |
| 2026-05-03 23:11 | 24.34421 | -87.15702 | 30032 ft | 469 kts | 334° |
| 2026-05-03 23:12 | 24.40558 | -87.18089 | 30038 ft | 468 kts | 332° |
| 2026-05-03 23:12 | 24.46683 | -87.20494 | 30034 ft | 468 kts | 333° |
| 2026-05-03 23:13 | 24.52849 | -87.22831 | 30035 ft | 469 kts | 333° |
| 2026-05-03 23:13 | 24.58988 | -87.25124 | 30033 ft | 469 kts | 333° |
| 2026-05-03 23:14 | 24.65170 | -87.27430 | 30042 ft | 469 kts | 333° |
| 2026-05-03 23:14 | 24.71328 | -87.29733 | 30043 ft | 469 kts | 333° |
| 2026-05-03 23:15 | 24.77507 | -87.32047 | 30045 ft | 469 kts | 333° |
| 2026-05-03 23:15 | 24.83682 | -87.34363 | 30045 ft | 468 kts | 333° |
| 2026-05-03 23:16 | 24.89851 | -87.36678 | 30042 ft | 468 kts | 333° |
| 2026-05-03 23:16 | 24.96019 | -87.38996 | 30042 ft | 468 kts | 333° |
| 2026-05-03 23:17 | 25.02181 | -87.41313 | 30059 ft | 466 kts | 333° |
| 2026-05-03 23:17 | 25.08263 | -87.43616 | 30055 ft | 460 kts | 333° |
| 2026-05-03 23:18 | 25.14319 | -87.45939 | 30051 ft | 461 kts | 333° |
| 2026-05-03 23:18 | 25.20385 | -87.48268 | 30057 ft | 462 kts | 333° |
| 2026-05-03 23:19 | 25.26452 | -87.50593 | 30056 ft | 461 kts | 333° |
| 2026-05-03 23:19 | 25.32514 | -87.52918 | 30089 ft | 461 kts | 333° |
| 2026-05-03 23:20 | 25.38522 | -87.55219 | 30062 ft | 454 kts | 333° |
| 2026-05-03 23:20 | 25.44477 | -87.57508 | 30062 ft | 453 kts | 333° |
| 2026-05-03 23:21 | 25.50441 | -87.59808 | 30064 ft | 454 kts | 333° |
| 2026-05-03 23:21 | 25.56412 | -87.62108 | 30066 ft | 454 kts | 333° |
| 2026-05-03 23:22 | 25.65359 | -87.65557 | 30087 ft | 453 kts | 333° |
| 2026-05-03 23:22 | 25.71274 | -87.67837 | 30067 ft | 448 kts | 332° |
| 2026-05-03 23:23 | 25.77164 | -87.70116 | 30079 ft | 449 kts | 332° |
| 2026-05-03 23:23 | 25.83071 | -87.72405 | 30084 ft | 449 kts | 333° |
| 2026-05-03 23:24 | 25.88921 | -87.74678 | 30077 ft | 448 kts | 333° |
| 2026-05-03 23:24 | 25.94802 | -87.76963 | 30104 ft | 448 kts | 332° |
| 2026-05-03 23:25 | 26.00643 | -87.79227 | 30080 ft | 441 kts | 332° |
| 2026-05-03 23:25 | 26.06427 | -87.81475 | 30081 ft | 441 kts | 332° |
| 2026-05-03 23:26 | 26.12226 | -87.83735 | 30089 ft | 442 kts | 332° |
| 2026-05-03 23:26 | 26.18028 | -87.85995 | 30090 ft | 442 kts | 332° |
| 2026-05-03 23:27 | 26.23828 | -87.88256 | 30090 ft | 441 kts | 332° |
| 2026-05-03 23:27 | 26.29614 | -87.90513 | 30096 ft | 439 kts | 332° |
| 2026-05-03 23:28 | 26.35372 | -87.92761 | 30091 ft | 438 kts | 332° |
| 2026-05-03 23:28 | 26.41127 | -87.95014 | 30097 ft | 439 kts | 332° |
| 2026-05-03 23:29 | 26.46888 | -87.97270 | 30096 ft | 439 kts | 332° |
| 2026-05-03 23:29 | 26.52630 | -87.99521 | 30097 ft | 439 kts | 332° |
| 2026-05-03 23:30 | 26.58385 | -88.01778 | 30113 ft | 438 kts | 331° |
| 2026-05-03 23:30 | 26.64136 | -88.04038 | 30102 ft | 437 kts | 331° |
| 2026-05-03 23:31 | 26.69873 | -88.06302 | 30102 ft | 438 kts | 331° |
| 2026-05-03 23:31 | 26.75616 | -88.08566 | 30105 ft | 438 kts | 331° |
| 2026-05-03 23:32 | 26.81322 | -88.10814 | 30105 ft | 436 kts | 331° |
| 2026-05-03 23:32 | 26.87025 | -88.13062 | 30136 ft | 435 kts | 331° |
| 2026-05-03 23:33 | 26.92752 | -88.15327 | 30108 ft | 437 kts | 331° |
| 2026-05-03 23:33 | 26.98490 | -88.17596 | 30110 ft | 437 kts | 331° |
| 2026-05-03 23:34 | 27.04223 | -88.19863 | 30114 ft | 437 kts | 331° |
| 2026-05-03 23:34 | 27.09957 | -88.22134 | 30108 ft | 437 kts | 331° |
| 2026-05-03 23:35 | 27.15689 | -88.24408 | 30126 ft | 437 kts | 331° |
| 2026-05-03 23:35 | 27.21434 | -88.26691 | 30123 ft | 440 kts | 331° |
| 2026-05-03 23:36 | 27.27210 | -88.28987 | 30119 ft | 440 kts | 331° |
| 2026-05-03 23:36 | 27.32987 | -88.31273 | 30119 ft | 440 kts | 331° |
| 2026-05-03 23:37 | 27.38766 | -88.33549 | 30122 ft | 440 kts | 331° |
| 2026-05-03 23:37 | 27.44542 | -88.35823 | 30121 ft | 440 kts | 331° |
| 2026-05-03 23:38 | 27.50294 | -88.38092 | 30131 ft | 442 kts | 332° |
| 2026-05-03 23:38 | 27.56115 | -88.40390 | 30122 ft | 443 kts | 332° |
| 2026-05-03 23:39 | 27.61935 | -88.42688 | 30127 ft | 443 kts | 332° |
| 2026-05-03 23:39 | 27.67752 | -88.44987 | 30129 ft | 443 kts | 332° |
| 2026-05-03 23:40 | 27.73564 | -88.47289 | 30113 ft | 443 kts | 332° |
| 2026-05-03 23:40 | 27.79356 | -88.49582 | 30129 ft | 439 kts | 332° |
| 2026-05-03 23:41 | 27.85103 | -88.51862 | 30132 ft | 437 kts | 331° |
| 2026-05-03 23:41 | 27.90850 | -88.54149 | 30127 ft | 438 kts | 331° |
| 2026-05-03 23:42 | 27.96599 | -88.56437 | 30127 ft | 438 kts | 331° |
| 2026-05-03 23:42 | 28.02343 | -88.58724 | 30126 ft | 438 kts | 331° |
| 2026-05-03 23:43 | 28.08092 | -88.61019 | 30154 ft | 439 kts | 332° |
| 2026-05-03 23:43 | 28.13866 | -88.63333 | 30133 ft | 441 kts | 332° |
| 2026-05-03 23:44 | 28.19648 | -88.65646 | 30137 ft | 441 kts | 332° |
| 2026-05-03 23:44 | 28.25312 | -88.68136 | 30136 ft | 431 kts | 324° |
| 2026-05-03 23:45 | 28.30267 | -88.71809 | 30133 ft | 423 kts | 317° |
| 2026-05-03 23:45 | 28.34977 | -88.75814 | 30142 ft | 423 kts | 316° |
| 2026-05-03 23:46 | 28.39721 | -88.79797 | 30144 ft | 426 kts | 317° |
| 2026-05-03 23:46 | 28.44529 | -88.83764 | 30141 ft | 428 kts | 318° |
| 2026-05-03 23:47 | 28.49350 | -88.87718 | 30136 ft | 426 kts | 318° |
| 2026-05-03 23:47 | 28.54132 | -88.91640 | 30140 ft | 423 kts | 318° |
| 2026-05-03 23:48 | 28.58901 | -88.95562 | 30140 ft | 423 kts | 318° |
| 2026-05-03 23:48 | 28.63672 | -88.99490 | 30141 ft | 423 kts | 318° |
| 2026-05-03 23:49 | 28.68446 | -89.03427 | 30162 ft | 425 kts | 318° |
| 2026-05-03 23:49 | 28.73244 | -89.07386 | 30144 ft | 426 kts | 318° |
| 2026-05-03 23:50 | 28.77236 | -89.10683 | 30144 ft | 426 kts | 318° |
| 2026-05-03 23:50 | 28.82841 | -89.15317 | 30142 ft | 425 kts | 318° |
| 2026-05-03 23:51 | 28.87627 | -89.19280 | 30141 ft | 425 kts | 318° |
| 2026-05-03 23:51 | 28.92385 | -89.23225 | 30140 ft | 425 kts | 318° |
| 2026-05-03 23:52 | 28.97156 | -89.27201 | 30155 ft | 424 kts | 319° |
| 2026-05-03 23:52 | 29.01948 | -89.31194 | 30144 ft | 424 kts | 319° |
| 2026-05-03 23:53 | 29.05922 | -89.34503 | 30143 ft | 425 kts | 319° |
| 2026-05-03 23:53 | 29.11471 | -89.39124 | 30141 ft | 425 kts | 319° |
| 2026-05-03 23:54 | 29.16242 | -89.43103 | 30141 ft | 424 kts | 319° |
| 2026-05-03 23:54 | 29.20242 | -89.46442 | 30142 ft | 424 kts | 319° |
| 2026-05-03 23:55 | 29.24980 | -89.50401 | 30195 ft | 424 kts | 319° |
| 2026-05-03 23:55 | 29.29752 | -89.54394 | 30144 ft | 425 kts | 319° |
| 2026-05-03 23:56 | 29.34523 | -89.58391 | 30146 ft | 425 kts | 319° |
| 2026-05-03 23:56 | 29.39299 | -89.62396 | 30142 ft | 425 kts | 319° |
| 2026-05-03 23:57 | 29.44073 | -89.66404 | 30141 ft | 425 kts | 319° |
| 2026-05-03 23:57 | 29.48843 | -89.70414 | 30142 ft | 425 kts | 319° |
| 2026-05-03 23:58 | 29.53614 | -89.74429 | 30139 ft | 425 kts | 319° |
| 2026-05-03 23:58 | 29.58379 | -89.78444 | 30143 ft | 424 kts | 319° |
| 2026-05-03 23:59 | 29.63122 | -89.82457 | 30140 ft | 424 kts | 319° |
| 2026-05-03 23:59 | 29.67855 | -89.86471 | 30140 ft | 424 kts | 319° |
| 2026-05-04 00:00 | 29.72600 | -89.90489 | 30142 ft | 424 kts | 319° |
| 2026-05-04 00:00 | 29.77356 | -89.94517 | 30140 ft | 424 kts | 319° |
| 2026-05-04 00:01 | 29.82164 | -89.98460 | 30138 ft | 427 kts | 324° |
| 2026-05-04 00:01 | 29.87735 | -90.01002 | 30151 ft | 439 kts | 342° |
| 2026-05-04 00:02 | 29.93815 | -90.02023 | 30150 ft | 443 kts | 346° |
| 2026-05-04 00:02 | 29.99948 | -90.02887 | 30151 ft | 443 kts | 346° |
| 2026-05-04 00:03 | 30.06047 | -90.03876 | 30133 ft | 442 kts | 345° |
| 2026-05-04 00:03 | 30.12128 | -90.04933 | 30167 ft | 442 kts | 345° |
| 2026-05-04 00:04 | 30.18209 | -90.06005 | 30144 ft | 442 kts | 345° |
| 2026-05-04 00:04 | 30.24281 | -90.07075 | 30140 ft | 442 kts | 345° |
| 2026-05-04 00:05 | 30.30356 | -90.08145 | 30136 ft | 442 kts | 345° |
| 2026-05-04 00:05 | 30.36433 | -90.09216 | 30141 ft | 442 kts | 345° |
| 2026-05-04 00:06 | 30.42513 | -90.10290 | 30144 ft | 442 kts | 346° |
| 2026-05-04 00:06 | 30.48546 | -90.11356 | 30134 ft | 442 kts | 346° |
| 2026-05-04 00:07 | 30.54637 | -90.12433 | 30130 ft | 443 kts | 346° |
| 2026-05-04 00:07 | 30.60724 | -90.13511 | 30130 ft | 443 kts | 346° |
| 2026-05-04 00:08 | 30.66769 | -90.14584 | 30130 ft | 442 kts | 346° |
| 2026-05-04 00:08 | 30.72903 | -90.15676 | 30126 ft | 442 kts | 346° |
| 2026-05-04 00:09 | 30.78942 | -90.16753 | 30126 ft | 442 kts | 346° |
| 2026-05-04 00:09 | 30.85066 | -90.17845 | 30127 ft | 442 kts | 346° |
| 2026-05-04 00:10 | 30.91154 | -90.18930 | 30129 ft | 442 kts | 346° |
| 2026-05-04 00:10 | 30.97234 | -90.20016 | 30137 ft | 443 kts | 347° |
| 2026-05-04 00:11 | 31.03283 | -90.21098 | 30124 ft | 443 kts | 347° |
| 2026-05-04 00:11 | 31.09375 | -90.22188 | 30124 ft | 443 kts | 347° |
| 2026-05-04 00:12 | 31.15464 | -90.23279 | 30121 ft | 443 kts | 347° |
| 2026-05-04 00:12 | 31.21561 | -90.24373 | 30122 ft | 443 kts | 347° |
| 2026-05-04 00:13 | 31.27653 | -90.25467 | 30126 ft | 443 kts | 347° |
| 2026-05-04 00:13 | 31.33847 | -90.25992 | 30124 ft | 449 kts | 354° |
| 2026-05-04 00:14 | 31.40099 | -90.26012 | 30127 ft | 450 kts | 355° |
| 2026-05-04 00:14 | 31.46336 | -90.26004 | 30126 ft | 449 kts | 355° |
| 2026-05-04 00:15 | 31.52589 | -90.26037 | 30145 ft | 449 kts | 355° |
| 2026-05-04 00:15 | 31.58849 | -90.26092 | 30127 ft | 451 kts | 355° |
| 2026-05-04 00:16 | 31.65123 | -90.26149 | 30124 ft | 451 kts | 355° |
| 2026-05-04 00:16 | 31.71395 | -90.26211 | 30124 ft | 450 kts | 354° |
| 2026-05-04 00:17 | 31.77587 | -90.26986 | 30119 ft | 446 kts | 347° |
| 2026-05-04 00:17 | 31.83691 | -90.28278 | 30122 ft | 446 kts | 346° |
| 2026-05-04 00:18 | 31.89809 | -90.29590 | 30119 ft | 447 kts | 346° |
| 2026-05-04 00:18 | 31.95931 | -90.30856 | 30113 ft | 447 kts | 347° |
| 2026-05-04 00:19 | 32.02062 | -90.32105 | 30117 ft | 447 kts | 347° |
| 2026-05-04 00:19 | 32.08191 | -90.33353 | 30131 ft | 447 kts | 347° |
| 2026-05-04 00:20 | 32.14333 | -90.34605 | 30120 ft | 448 kts | 347° |
| 2026-05-04 00:20 | 32.20479 | -90.35860 | 30117 ft | 448 kts | 347° |
| 2026-05-04 00:21 | 32.26626 | -90.37118 | 30117 ft | 448 kts | 347° |
| 2026-05-04 00:21 | 32.32766 | -90.38375 | 30105 ft | 448 kts | 347° |
| 2026-05-04 00:22 | 32.38904 | -90.39633 | 30110 ft | 448 kts | 347° |
| 2026-05-04 00:22 | 32.45049 | -90.40897 | 30107 ft | 448 kts | 347° |
| 2026-05-04 00:23 | 32.51158 | -90.42154 | 30102 ft | 448 kts | 347° |
| 2026-05-04 00:23 | 32.57297 | -90.43420 | 30107 ft | 448 kts | 346° |
| 2026-05-04 00:24 | 32.63437 | -90.44692 | 30113 ft | 449 kts | 347° |
| 2026-05-04 00:24 | 32.69598 | -90.45967 | 30106 ft | 449 kts | 347° |
| 2026-05-04 00:25 | 32.75756 | -90.47241 | 30107 ft | 449 kts | 347° |
| 2026-05-04 00:25 | 32.81923 | -90.48518 | 30105 ft | 449 kts | 347° |
| 2026-05-04 00:26 | 32.88083 | -90.49796 | 30104 ft | 449 kts | 347° |
| 2026-05-04 00:26 | 32.94253 | -90.51078 | 30107 ft | 450 kts | 347° |
| 2026-05-04 00:27 | 33.00422 | -90.52361 | 30098 ft | 450 kts | 346° |
| 2026-05-04 00:27 | 33.06592 | -90.53646 | 30023 ft | 452 kts | 347° |
| 2026-05-04 00:28 | 33.09660 | -90.54285 | 29503 ft | 442 kts | 347° |
| 2026-05-04 00:28 | 33.12674 | -90.54911 | 28921 ft | 437 kts | 346° |
| 2026-05-04 00:28 | 33.15642 | -90.55529 | 28355 ft | 428 kts | 346° |
| 2026-05-04 00:28 | 33.18553 | -90.56136 | 27814 ft | 424 kts | 346° |
| 2026-05-04 00:29 | 33.21443 | -90.56740 | 27265 ft | 420 kts | 346° |
| 2026-05-04 00:29 | 33.24323 | -90.57344 | 26686 ft | 418 kts | 346° |
| 2026-05-04 00:29 | 33.27161 | -90.57940 | 26089 ft | 415 kts | 346° |
| 2026-05-04 00:29 | 33.29997 | -90.58535 | 25503 ft | 413 kts | 346° |
| 2026-05-04 00:30 | 33.32825 | -90.59129 | 24926 ft | 411 kts | 347° |
| 2026-05-04 00:30 | 33.35633 | -90.59718 | 24364 ft | 409 kts | 347° |
| 2026-05-04 00:30 | 33.38421 | -90.60305 | 23818 ft | 407 kts | 347° |
| 2026-05-04 00:30 | 33.41200 | -90.60892 | 23184 ft | 405 kts | 347° |
| 2026-05-04 00:31 | 33.43968 | -90.61476 | 22561 ft | 400 kts | 347° |
| 2026-05-04 00:31 | 33.46670 | -90.62045 | 21923 ft | 390 kts | 347° |
| 2026-05-04 00:31 | 33.49311 | -90.62576 | 21303 ft | 380 kts | 349° |
| 2026-05-04 00:31 | 33.51900 | -90.63017 | 20700 ft | 372 kts | 350° |
| 2026-05-04 00:32 | 33.54443 | -90.63413 | 20110 ft | 364 kts | 351° |
| 2026-05-04 00:32 | 33.56935 | -90.63790 | 19526 ft | 358 kts | 351° |
| 2026-05-04 00:32 | 33.59388 | -90.64161 | 19154 ft | 354 kts | 351° |
| 2026-05-04 00:32 | 33.61827 | -90.64531 | 18796 ft | 354 kts | 351° |
| 2026-05-04 00:33 | 33.64263 | -90.64903 | 18450 ft | 352 kts | 351° |
| 2026-05-04 00:33 | 33.69050 | -90.65635 | 18109 ft | 348 kts | 351° |
| 2026-05-04 00:33 | 33.71450 | -90.66004 | 18095 ft | 347 kts | 351° |
| 2026-05-04 00:34 | 33.73845 | -90.66372 | 18089 ft | 347 kts | 351° |
| 2026-05-04 00:34 | 33.76245 | -90.66741 | 18063 ft | 347 kts | 351° |
| 2026-05-04 00:34 | 33.78639 | -90.67110 | 18063 ft | 347 kts | 351° |
| 2026-05-04 00:34 | 33.81035 | -90.67479 | 18063 ft | 347 kts | 351° |
| 2026-05-04 00:35 | 33.83433 | -90.67849 | 18061 ft | 347 kts | 351° |
| 2026-05-04 00:35 | 33.85830 | -90.68218 | 18066 ft | 348 kts | 351° |
| 2026-05-04 00:35 | 33.88227 | -90.68588 | 18067 ft | 347 kts | 351° |
| 2026-05-04 00:35 | 33.90628 | -90.68959 | 18067 ft | 347 kts | 351° |
| 2026-05-04 00:36 | 33.93024 | -90.69329 | 18070 ft | 347 kts | 351° |
| 2026-05-04 00:36 | 33.95421 | -90.69699 | 18074 ft | 347 kts | 351° |
| 2026-05-04 00:36 | 33.97812 | -90.70069 | 18072 ft | 346 kts | 351° |
| 2026-05-04 00:36 | 34.00206 | -90.70439 | 18059 ft | 346 kts | 351° |
| 2026-05-04 00:37 | 34.02598 | -90.70810 | 17806 ft | 346 kts | 351° |
| 2026-05-04 00:37 | 34.04981 | -90.71181 | 17536 ft | 344 kts | 351° |
| 2026-05-04 00:37 | 34.07352 | -90.71550 | 17286 ft | 343 kts | 351° |
| 2026-05-04 00:37 | 34.09712 | -90.71918 | 17034 ft | 342 kts | 351° |
| 2026-05-04 00:38 | 34.12065 | -90.72285 | 16768 ft | 341 kts | 351° |
| 2026-05-04 00:38 | 34.14415 | -90.72651 | 16511 ft | 340 kts | 351° |
| 2026-05-04 00:38 | 34.16753 | -90.73015 | 16262 ft | 338 kts | 351° |
| 2026-05-04 00:38 | 34.19084 | -90.73378 | 16010 ft | 337 kts | 351° |
| 2026-05-04 00:39 | 34.21410 | -90.73741 | 15770 ft | 336 kts | 351° |
| 2026-05-04 00:39 | 34.23722 | -90.74101 | 15525 ft | 335 kts | 351° |
| 2026-05-04 00:39 | 34.25253 | -90.74340 | 15361 ft | 334 kts | 351° |
| 2026-05-04 00:39 | 34.28328 | -90.74820 | 15028 ft | 332 kts | 351° |
| 2026-05-04 00:40 | 34.29846 | -90.75057 | 14878 ft | 332 kts | 351° |
| 2026-05-04 00:40 | 34.32128 | -90.75414 | 14636 ft | 331 kts | 351° |
| 2026-05-04 00:40 | 34.34407 | -90.75770 | 14397 ft | 330 kts | 351° |
| 2026-05-04 00:40 | 34.36679 | -90.76126 | 14171 ft | 329 kts | 351° |
| 2026-05-04 00:41 | 34.38929 | -90.76477 | 14104 ft | 322 kts | 351° |
| 2026-05-04 00:41 | 34.41144 | -90.76824 | 14080 ft | 321 kts | 351° |
| 2026-05-04 00:41 | 34.43359 | -90.77171 | 14071 ft | 321 kts | 351° |
| 2026-05-04 00:41 | 34.45582 | -90.77510 | 14066 ft | 322 kts | 353° |
| 2026-05-04 00:42 | 34.47817 | -90.77568 | 14063 ft | 323 kts | 4° |
| 2026-05-04 00:42 | 34.50005 | -90.76916 | 14062 ft | 327 kts | 21° |
| 2026-05-04 00:42 | 34.51930 | -90.75418 | 14066 ft | 333 kts | 39° |
| 2026-05-04 00:42 | 34.53528 | -90.73370 | 14061 ft | 337 kts | 46° |
| 2026-05-04 00:43 | 34.55003 | -90.71156 | 14063 ft | 338 kts | 49° |
| 2026-05-04 00:43 | 34.56454 | -90.68912 | 14059 ft | 338 kts | 49° |
| 2026-05-04 00:43 | 34.57911 | -90.66675 | 14060 ft | 338 kts | 48° |
| 2026-05-04 00:43 | 34.59386 | -90.64441 | 13884 ft | 338 kts | 48° |
| 2026-05-04 00:44 | 34.60863 | -90.62229 | 13494 ft | 336 kts | 48° |
| 2026-05-04 00:44 | 34.62313 | -90.60018 | 13103 ft | 334 kts | 49° |
| 2026-05-04 00:44 | 34.63733 | -90.57808 | 12718 ft | 333 kts | 49° |
| 2026-05-04 00:44 | 34.65148 | -90.55593 | 12334 ft | 331 kts | 49° |
| 2026-05-04 00:45 | 34.66553 | -90.53392 | 11958 ft | 329 kts | 50° |
| 2026-05-04 00:45 | 34.67952 | -90.51202 | 11583 ft | 327 kts | 50° |
| 2026-05-04 00:45 | 34.69329 | -90.49049 | 11216 ft | 326 kts | 50° |
| 2026-05-04 00:45 | 34.70734 | -90.46851 | 10840 ft | 324 kts | 50° |
| 2026-05-04 00:46 | 34.72112 | -90.44693 | 10490 ft | 323 kts | 50° |
| 2026-05-04 00:46 | 34.73445 | -90.42600 | 10169 ft | 305 kts | 50° |
| 2026-05-04 00:46 | 34.74698 | -90.40631 | 10069 ft | 292 kts | 50° |
| 2026-05-04 00:46 | 34.75940 | -90.38684 | 10057 ft | 291 kts | 50° |
| 2026-05-04 00:47 | 34.77197 | -90.36714 | 10047 ft | 291 kts | 50° |
| 2026-05-04 00:47 | 34.78439 | -90.34766 | 9999 ft | 290 kts | 50° |
| 2026-05-04 00:47 | 34.79676 | -90.32826 | 9935 ft | 291 kts | 50° |
| 2026-05-04 00:47 | 34.80881 | -90.30934 | 9669 ft | 285 kts | 50° |
| 2026-05-04 00:48 | 34.82089 | -90.29034 | 9409 ft | 283 kts | 50° |
| 2026-05-04 00:48 | 34.83290 | -90.27136 | 9153 ft | 283 kts | 50° |
| 2026-05-04 00:48 | 34.84492 | -90.25235 | 8900 ft | 282 kts | 50° |
| 2026-05-04 00:48 | 34.85685 | -90.23347 | 8641 ft | 282 kts | 50° |
| 2026-05-04 00:49 | 34.86882 | -90.21452 | 8382 ft | 282 kts | 50° |
| 2026-05-04 00:49 | 34.88073 | -90.19567 | 8130 ft | 281 kts | 50° |
| 2026-05-04 00:49 | 34.89264 | -90.17682 | 7898 ft | 280 kts | 50° |
| 2026-05-04 00:49 | 34.90452 | -90.15801 | 7649 ft | 280 kts | 50° |
| 2026-05-04 00:50 | 34.91611 | -90.13961 | 7404 ft | 262 kts | 49° |
| 2026-05-04 00:50 | 34.92792 | -90.12382 | 7135 ft | 248 kts | 36° |
| 2026-05-04 00:50 | 34.94292 | -90.11430 | 6887 ft | 240 kts | 10° |
| 2026-05-04 00:50 | 34.95934 | -90.11191 | 6660 ft | 238 kts | 359° |
| 2026-05-04 00:51 | 34.97587 | -90.11135 | 6425 ft | 237 kts | 358° |
| 2026-05-04 00:51 | 34.99207 | -90.11101 | 6109 ft | 229 kts | 357° |
| 2026-05-04 00:51 | 35.00788 | -90.11072 | 5611 ft | 225 kts | 356° |
| 2026-05-04 00:51 | 35.02342 | -90.11043 | 5177 ft | 222 kts | 356° |
| 2026-05-04 00:52 | 35.03885 | -90.11015 | 4822 ft | 221 kts | 356° |
| 2026-05-04 00:52 | 35.05423 | -90.10988 | 4431 ft | 222 kts | 356° |
| 2026-05-04 00:52 | 35.06973 | -90.10962 | 4075 ft | 223 kts | 356° |
| 2026-05-04 00:52 | 35.08536 | -90.10934 | 4005 ft | 226 kts | 356° |
| 2026-05-04 00:53 | 35.10108 | -90.10922 | 3988 ft | 226 kts | 355° |
| 2026-05-04 00:53 | 35.11681 | -90.10939 | 3985 ft | 226 kts | 355° |
| 2026-05-04 00:53 | 35.13255 | -90.10961 | 3990 ft | 226 kts | 355° |
| 2026-05-04 00:53 | 35.14844 | -90.10985 | 3685 ft | 229 kts | 355° |
| 2026-05-04 00:54 | 35.16406 | -90.11006 | 3270 ft | 225 kts | 355° |
| 2026-05-04 00:54 | 35.17975 | -90.11030 | 2911 ft | 227 kts | 356° |
| 2026-05-04 00:54 | 35.19559 | -90.11054 | 2531 ft | 227 kts | 356° |
| 2026-05-04 00:54 | 35.21138 | -90.11075 | 2199 ft | 225 kts | 358° |
| 2026-05-04 00:55 | 35.22680 | -90.10700 | 2228 ft | 230 kts | 23° |
| 2026-05-04 00:55 | 35.23979 | -90.09580 | 2205 ft | 229 kts | 49° |
| 2026-05-04 00:55 | 35.24777 | -90.07929 | 2102 ft | 226 kts | 76° |
| 2026-05-04 00:55 | 35.24893 | -90.06064 | 2054 ft | 219 kts | 105° |
| 2026-05-04 00:56 | 35.24287 | -90.04423 | 2092 ft | 204 kts | 134° |
| 2026-05-04 00:56 | 35.23270 | -90.03418 | 2033 ft | 180 kts | 159° |
| 2026-05-04 00:56 | 35.22142 | -90.02821 | 2058 ft | 177 kts | 163° |
| 2026-05-04 00:56 | 35.20988 | -90.02284 | 2051 ft | 178 kts | 163° |
| 2026-05-04 00:57 | 35.19836 | -90.01787 | 2093 ft | 175 kts | 165° |
| 2026-05-04 00:57 | 35.18697 | -90.01311 | 2245 ft | 176 kts | 165° |
| 2026-05-04 00:57 | 35.17531 | -90.00821 | 2223 ft | 176 kts | 165° |
| 2026-05-04 00:57 | 35.16372 | -90.00334 | 2159 ft | 175 kts | 165° |
| 2026-05-04 00:58 | 35.15223 | -89.99835 | 2021 ft | 176 kts | 165° |
| 2026-05-04 00:58 | 35.14062 | -89.99393 | 1761 ft | 169 kts | 169° |
| 2026-05-04 00:58 | 35.12947 | -89.99152 | 1430 ft | 161 kts | 175° |
| 2026-05-04 00:58 | 35.11838 | -89.99012 | 1261 ft | 161 kts | 176° |
| 2026-05-04 00:59 | 35.10721 | -89.98911 | 1162 ft | 161 kts | 179° |
| 2026-05-04 00:59 | 35.09591 | -89.98865 | 1029 ft | 164 kts | 180° |
| 2026-05-04 00:59 | 35.08469 | -89.98832 | 841 ft | 159 kts | 180° |
| 2026-05-04 00:59 | 35.07377 | -89.98803 | 667 ft | 161 kts | 180° |
| 2026-05-04 01:00 | 35.06274 | -89.98774 | 513 ft | 154 kts | 180° |
| 2026-05-04 01:00 | 35.05189 | -89.98746 | 371 ft | 154 kts | 181° |
| 2026-05-04 01:00 | 35.04159 | -89.98726 | 308 ft | 132 kts | 179° |
| 2026-05-04 01:00 | 35.03474 | -89.98714 | 321 ft | 50 kts | 179° |
| 2026-05-04 01:01 | 35.03343 | -89.98710 | 324 ft | 1 kts | 178° |
| 2026-05-04 01:01 | 35.03242 | -89.98688 | 323 ft | 24 kts | 164° |
| 2026-05-04 01:01 | 35.03120 | -89.98611 | 321 ft | 9 kts | 139° |
| 2026-05-04 01:01 | 35.03117 | -89.98608 | 321 ft | 0 kts | 137° |
| 2026-05-04 01:03 | 35.03113 | -89.98604 | 321 ft | 3 kts | 137° |
| 2026-05-04 01:03 | 35.03080 | -89.98582 | 319 ft | 7 kts | 161° |
| 2026-05-04 01:03 | 35.03019 | -89.98570 | 321 ft | 10 kts | 175° |
| 2026-05-04 01:04 | 35.02937 | -89.98562 | 321 ft | 13 kts | 175° |
| 2026-05-04 01:04 | 35.02836 | -89.98552 | 321 ft | 16 kts | 175° |
| 2026-05-04 01:04 | 35.02744 | -89.98560 | 321 ft | 12 kts | 182° |
| 2026-05-04 01:04 | 35.02680 | -89.98546 | 322 ft | 6 kts | 141° |
| 2026-05-04 01:05 | 35.02659 | -89.98518 | 322 ft | 4 kts | 128° |
| 2026-05-04 01:05 | 35.02623 | -89.98479 | 324 ft | 11 kts | 149° |
| 2026-05-04 01:05 | 35.02550 | -89.98456 | 323 ft | 7 kts | 162° |
| 2026-05-04 01:05 | 35.02527 | -89.98428 | 324 ft | 4 kts | 111° |
| 2026-05-04 01:06 | 35.02526 | -89.98363 | 324 ft | 8 kts | 88° |
| 2026-05-04 01:06 | 35.02526 | -89.98345 | 324 ft | 0 kts | 88° |